sensor_id;sensor_type;location;lat;lon;timestamp;P1;durP1;ratioP1;P2;durP2;ratioP2
63296;SDS011;49419;51.716;-4.948;2022-10-31T00:01:49;15.32;;;11.82;;
63296;SDS011;49419;51.716;-4.948;2022-10-31T00:04:14;13.27;;;12.07;;
63296;SDS011;49419;51.716;-4.948;2022-10-31T00:06:39;17.88;;;12.80;;
63296;SDS011;49419;51.716;-4.948;2022-10-31T00:09:05;14.77;;;12.93;;
63296;SDS011;49419;51.716;-4.948;2022-10-31T00:11:30;13.40;;;12.10;;
63296;SDS011;49419;51.716;-4.948;2022-10-31T00:13:59;13.75;;;12.35;;
63296;SDS011;49419;51.716;-4.948;2022-10-31T00:16:26;13.37;;;12.03;;
63296;SDS011;49419;51.716;-4.948;2022-10-31T00:18:56;16.88;;;12.32;;
63296;SDS011;49419;51.716;-4.948;2022-10-31T00:21:24;14.32;;;12.55;;
63296;SDS011;49419;51.716;-4.948;2022-10-31T00:23:50;14.90;;;12.45;;
63296;SDS011;49419;51.716;-4.948;2022-10-31T00:26:16;13.60;;;12.20;;
63296;SDS011;49419;51.716;-4.948;2022-10-31T00:28:42;17.08;;;12.70;;
63296;SDS011;49419;51.716;-4.948;2022-10-31T00:31:08;13.68;;;12.25;;
63296;SDS011;49419;51.716;-4.948;2022-10-31T00:33:36;13.25;;;11.95;;
63296;SDS011;49419;51.716;-4.948;2022-10-31T00:36:02;13.23;;;11.82;;
63296;SDS011;49419;51.716;-4.948;2022-10-31T00:38:29;13.90;;;12.50;;
63296;SDS011;49419;51.716;-4.948;2022-10-31T00:40:55;17.67;;;12.60;;
63296;SDS011;49419;51.716;-4.948;2022-10-31T00:43:20;15.52;;;12.73;;
63296;SDS011;49419;51.716;-4.948;2022-10-31T00:45:45;16.27;;;12.80;;
63296;SDS011;49419;51.716;-4.948;2022-10-31T00:48:11;13.70;;;12.38;;
63296;SDS011;49419;51.716;-4.948;2022-10-31T00:50:36;15.60;;;12.60;;
63296;SDS011;49419;51.716;-4.948;2022-10-31T00:53:03;14.25;;;12.63;;
63296;SDS011;49419;51.716;-4.948;2022-10-31T00:55:29;17.33;;;12.77;;
63296;SDS011;49419;51.716;-4.948;2022-10-31T00:57:54;16.02;;;12.57;;
63296;SDS011;49419;51.716;-4.948;2022-10-31T01:00:20;13.57;;;12.18;;
63296;SDS011;49419;51.716;-4.948;2022-10-31T01:02:45;14.50;;;12.40;;
63296;SDS011;49419;51.716;-4.948;2022-10-31T01:05:11;14.75;;;12.60;;
63296;SDS011;49419;51.716;-4.948;2022-10-31T01:07:37;16.42;;;12.80;;
63296;SDS011;49419;51.716;-4.948;2022-10-31T01:10:04;15.27;;;12.15;;
63296;SDS011;49419;51.716;-4.948;2022-10-31T01:12:35;16.48;;;12.57;;
63296;SDS011;49419;51.716;-4.948;2022-10-31T01:15:11;19.67;;;12.95;;
63296;SDS011;49419;51.716;-4.948;2022-10-31T01:17:38;17.20;;;12.48;;
63296;SDS011;49419;51.716;-4.948;2022-10-31T01:20:04;16.52;;;12.63;;
63296;SDS011;49419;51.716;-4.948;2022-10-31T01:22:31;13.82;;;12.23;;
63296;SDS011;49419;51.716;-4.948;2022-10-31T01:24:56;15.68;;;12.23;;
63296;SDS011;49419;51.716;-4.948;2022-10-31T01:27:22;20.77;;;12.77;;
63296;SDS011;49419;51.716;-4.948;2022-10-31T01:29:47;20.90;;;13.27;;
63296;SDS011;49419;51.716;-4.948;2022-10-31T01:32:12;16.73;;;13.20;;
63296;SDS011;49419;51.716;-4.948;2022-10-31T01:34:38;19.30;;;13.15;;
63296;SDS011;49419;51.716;-4.948;2022-10-31T01:37:03;18.33;;;13.55;;
63296;SDS011;49419;51.716;-4.948;2022-10-31T01:39:29;14.40;;;12.73;;
63296;SDS011;49419;51.716;-4.948;2022-10-31T01:41:54;14.05;;;12.65;;
63296;SDS011;49419;51.716;-4.948;2022-10-31T01:51:49;20.55;;;13.30;;
63296;SDS011;49419;51.716;-4.948;2022-10-31T01:54:37;15.00;;;12.60;;
63296;SDS011;49419;51.716;-4.948;2022-10-31T01:57:04;22.90;;;13.27;;
63296;SDS011;49419;51.716;-4.948;2022-10-31T01:59:33;22.43;;;13.07;;
63296;SDS011;49419;51.716;-4.948;2022-10-31T02:02:03;17.27;;;12.93;;
63296;SDS011;49419;51.716;-4.948;2022-10-31T02:04:28;17.55;;;12.80;;
63296;SDS011;49419;51.716;-4.948;2022-10-31T02:06:58;23.00;;;13.52;;
63296;SDS011;49419;51.716;-4.948;2022-10-31T02:09:30;14.90;;;12.45;;
63296;SDS011;49419;51.716;-4.948;2022-10-31T02:11:57;18.25;;;12.82;;
63296;SDS011;49419;51.716;-4.948;2022-10-31T02:14:24;17.65;;;13.18;;
63296;SDS011;49419;51.716;-4.948;2022-10-31T02:16:53;18.30;;;13.50;;
63296;SDS011;49419;51.716;-4.948;2022-10-31T02:19:26;13.25;;;12.00;;
63296;SDS011;49419;51.716;-4.948;2022-10-31T02:22:04;18.05;;;12.70;;
63296;SDS011;49419;51.716;-4.948;2022-10-31T02:27:07;14.80;;;12.43;;
63296;SDS011;49419;51.716;-4.948;2022-10-31T02:41:09;14.77;;;12.38;;
63296;SDS011;49419;51.716;-4.948;2022-10-31T02:43:50;14.70;;;12.77;;
63296;SDS011;49419;51.716;-4.948;2022-10-31T02:49:10;14.40;;;12.85;;
63296;SDS011;49419;51.716;-4.948;2022-10-31T02:51:43;14.80;;;12.77;;
63296;SDS011;49419;51.716;-4.948;2022-10-31T02:54:22;14.52;;;13.00;;
63296;SDS011;49419;51.716;-4.948;2022-10-31T02:56:49;13.98;;;12.57;;
63296;SDS011;49419;51.716;-4.948;2022-10-31T02:59:18;15.50;;;12.50;;
63296;SDS011;49419;51.716;-4.948;2022-10-31T03:04:32;14.80;;;12.70;;
63296;SDS011;49419;51.716;-4.948;2022-10-31T03:10:07;13.73;;;12.40;;
63296;SDS011;49419;51.716;-4.948;2022-10-31T03:15:58;13.52;;;12.15;;
63296;SDS011;49419;51.716;-4.948;2022-10-31T03:18:29;13.90;;;12.50;;
63296;SDS011;49419;51.716;-4.948;2022-10-31T03:21:09;16.10;;;12.48;;
63296;SDS011;49419;51.716;-4.948;2022-10-31T03:23:44;13.82;;;12.43;;
63296;SDS011;49419;51.716;-4.948;2022-10-31T03:26:12;14.15;;;12.77;;
63296;SDS011;49419;51.716;-4.948;2022-10-31T03:28:43;14.20;;;12.65;;
63296;SDS011;49419;51.716;-4.948;2022-10-31T03:31:16;13.52;;;12.35;;
63296;SDS011;49419;51.716;-4.948;2022-10-31T03:33:44;13.20;;;12.00;;
63296;SDS011;49419;51.716;-4.948;2022-10-31T03:36:11;13.75;;;12.45;;
63296;SDS011;49419;51.716;-4.948;2022-10-31T03:41:07;13.25;;;12.07;;
63296;SDS011;49419;51.716;-4.948;2022-10-31T03:43:38;13.38;;;12.23;;
63296;SDS011;49419;51.716;-4.948;2022-10-31T03:46:07;13.73;;;12.45;;
63296;SDS011;49419;51.716;-4.948;2022-10-31T03:48:33;13.20;;;12.00;;
63296;SDS011;49419;51.716;-4.948;2022-10-31T03:53:56;12.80;;;11.60;;
63296;SDS011;49419;51.716;-4.948;2022-10-31T03:59:09;13.18;;;11.88;;
63296;SDS011;49419;51.716;-4.948;2022-10-31T04:01:44;12.95;;;11.73;;
63296;SDS011;49419;51.716;-4.948;2022-10-31T04:04:14;13.18;;;11.98;;
63296;SDS011;49419;51.716;-4.948;2022-10-31T04:06:40;14.13;;;12.20;;
63296;SDS011;49419;51.716;-4.948;2022-10-31T04:09:08;12.90;;;11.73;;
63296;SDS011;49419;51.716;-4.948;2022-10-31T04:11:36;12.30;;;11.30;;
63296;SDS011;49419;51.716;-4.948;2022-10-31T04:14:05;12.93;;;11.80;;
63296;SDS011;49419;51.716;-4.948;2022-10-31T04:16:33;13.48;;;12.23;;
63296;SDS011;49419;51.716;-4.948;2022-10-31T04:18:58;12.57;;;11.48;;
63296;SDS011;49419;51.716;-4.948;2022-10-31T04:21:28;12.93;;;11.68;;
63296;SDS011;49419;51.716;-4.948;2022-10-31T04:23:56;13.13;;;11.98;;
63296;SDS011;49419;51.716;-4.948;2022-10-31T04:26:21;13.43;;;12.13;;
63296;SDS011;49419;51.716;-4.948;2022-10-31T04:28:47;13.25;;;12.05;;
63296;SDS011;49419;51.716;-4.948;2022-10-31T04:31:12;13.27;;;12.07;;
63296;SDS011;49419;51.716;-4.948;2022-10-31T04:33:38;12.13;;;11.23;;
63296;SDS011;49419;51.716;-4.948;2022-10-31T04:36:04;13.30;;;12.10;;
63296;SDS011;49419;51.716;-4.948;2022-10-31T04:38:29;13.25;;;12.10;;
63296;SDS011;49419;51.716;-4.948;2022-10-31T04:40:55;13.27;;;12.07;;
63296;SDS011;49419;51.716;-4.948;2022-10-31T04:43:20;13.23;;;12.10;;
63296;SDS011;49419;51.716;-4.948;2022-10-31T04:45:46;13.75;;;12.35;;
63296;SDS011;49419;51.716;-4.948;2022-10-31T04:48:11;13.52;;;12.25;;
63296;SDS011;49419;51.716;-4.948;2022-10-31T04:50:36;14.45;;;12.82;;
63296;SDS011;49419;51.716;-4.948;2022-10-31T04:53:02;13.63;;;12.25;;
63296;SDS011;49419;51.716;-4.948;2022-10-31T04:55:27;13.35;;;12.02;;
63296;SDS011;49419;51.716;-4.948;2022-10-31T04:57:53;13.82;;;12.57;;
63296;SDS011;49419;51.716;-4.948;2022-10-31T05:00:19;13.32;;;12.13;;
63296;SDS011;49419;51.716;-4.948;2022-10-31T05:02:46;13.43;;;12.20;;
63296;SDS011;49419;51.716;-4.948;2022-10-31T05:05:13;13.85;;;12.45;;
63296;SDS011;49419;51.716;-4.948;2022-10-31T05:07:44;13.73;;;12.57;;
63296;SDS011;49419;51.716;-4.948;2022-10-31T05:10:11;14.88;;;13.10;;
63296;SDS011;49419;51.716;-4.948;2022-10-31T05:12:44;13.95;;;12.50;;
63296;SDS011;49419;51.716;-4.948;2022-10-31T05:15:11;14.30;;;12.98;;
63296;SDS011;49419;51.716;-4.948;2022-10-31T05:17:37;15.50;;;12.13;;
63296;SDS011;49419;51.716;-4.948;2022-10-31T05:20:05;14.65;;;12.30;;
63296;SDS011;49419;51.716;-4.948;2022-10-31T05:22:31;13.73;;;12.43;;
63296;SDS011;49419;51.716;-4.948;2022-10-31T05:24:56;13.43;;;12.07;;
63296;SDS011;49419;51.716;-4.948;2022-10-31T05:27:22;13.70;;;12.27;;
63296;SDS011;49419;51.716;-4.948;2022-10-31T05:29:49;15.30;;;12.63;;
63296;SDS011;49419;51.716;-4.948;2022-10-31T05:32:15;17.25;;;13.05;;
63296;SDS011;49419;51.716;-4.948;2022-10-31T05:34:40;15.38;;;12.98;;
63296;SDS011;49419;51.716;-4.948;2022-10-31T05:37:05;14.13;;;12.63;;
63296;SDS011;49419;51.716;-4.948;2022-10-31T05:39:31;13.25;;;12.07;;
63296;SDS011;49419;51.716;-4.948;2022-10-31T05:41:56;13.80;;;12.50;;
63296;SDS011;49419;51.716;-4.948;2022-10-31T05:44:22;14.30;;;12.75;;
63296;SDS011;49419;51.716;-4.948;2022-10-31T05:46:47;14.20;;;12.70;;
63296;SDS011;49419;51.716;-4.948;2022-10-31T05:49:12;13.43;;;12.18;;
63296;SDS011;49419;51.716;-4.948;2022-10-31T05:51:38;14.25;;;12.60;;
63296;SDS011;49419;51.716;-4.948;2022-10-31T05:54:05;14.50;;;13.00;;
63296;SDS011;49419;51.716;-4.948;2022-10-31T05:56:31;15.00;;;12.57;;
63296;SDS011;49419;51.716;-4.948;2022-10-31T05:58:56;14.50;;;12.88;;
63296;SDS011;49419;51.716;-4.948;2022-10-31T06:01:21;14.90;;;13.00;;
63296;SDS011;49419;51.716;-4.948;2022-10-31T06:03:47;15.80;;;12.80;;
63296;SDS011;49419;51.716;-4.948;2022-10-31T06:06:12;14.32;;;12.32;;
63296;SDS011;49419;51.716;-4.948;2022-10-31T06:08:38;13.68;;;12.30;;
63296;SDS011;49419;51.716;-4.948;2022-10-31T06:11:03;14.23;;;12.80;;
63296;SDS011;49419;51.716;-4.948;2022-10-31T06:13:32;14.48;;;12.50;;
63296;SDS011;49419;51.716;-4.948;2022-10-31T06:15:57;14.13;;;12.65;;
63296;SDS011;49419;51.716;-4.948;2022-10-31T06:18:22;13.80;;;12.40;;
63296;SDS011;49419;51.716;-4.948;2022-10-31T06:20:48;13.38;;;12.23;;
63296;SDS011;49419;51.716;-4.948;2022-10-31T06:23:13;14.07;;;12.57;;
63296;SDS011;49419;51.716;-4.948;2022-10-31T06:25:39;13.43;;;12.13;;
63296;SDS011;49419;51.716;-4.948;2022-10-31T06:28:04;13.93;;;12.45;;
63296;SDS011;49419;51.716;-4.948;2022-10-31T06:30:30;12.90;;;11.77;;
63296;SDS011;49419;51.716;-4.948;2022-10-31T06:33:01;13.40;;;12.20;;
63296;SDS011;49419;51.716;-4.948;2022-10-31T06:35:30;16.75;;;12.48;;
63296;SDS011;49419;51.716;-4.948;2022-10-31T06:37:56;14.10;;;12.20;;
63296;SDS011;49419;51.716;-4.948;2022-10-31T06:40:21;15.10;;;12.65;;
63296;SDS011;49419;51.716;-4.948;2022-10-31T06:42:47;13.38;;;11.95;;
63296;SDS011;49419;51.716;-4.948;2022-10-31T06:45:20;13.02;;;11.77;;
63296;SDS011;49419;51.716;-4.948;2022-10-31T06:47:50;13.40;;;12.15;;
63296;SDS011;49419;51.716;-4.948;2022-10-31T06:50:16;12.82;;;11.73;;
63296;SDS011;49419;51.716;-4.948;2022-10-31T06:52:41;13.02;;;11.77;;
63296;SDS011;49419;51.716;-4.948;2022-10-31T06:55:07;13.25;;;12.05;;
63296;SDS011;49419;51.716;-4.948;2022-10-31T06:57:32;13.38;;;11.93;;
63296;SDS011;49419;51.716;-4.948;2022-10-31T06:59:58;12.85;;;11.85;;
63296;SDS011;49419;51.716;-4.948;2022-10-31T07:02:23;13.75;;;12.35;;
63296;SDS011;49419;51.716;-4.948;2022-10-31T07:04:48;12.77;;;11.68;;
63296;SDS011;49419;51.716;-4.948;2022-10-31T07:07:14;12.93;;;11.75;;
63296;SDS011;49419;51.716;-4.948;2022-10-31T07:09:39;12.57;;;11.57;;
63296;SDS011;49419;51.716;-4.948;2022-10-31T07:12:05;12.45;;;11.35;;
63296;SDS011;49419;51.716;-4.948;2022-10-31T07:14:30;12.60;;;11.50;;
63296;SDS011;49419;51.716;-4.948;2022-10-31T07:16:55;12.52;;;11.52;;
63296;SDS011;49419;51.716;-4.948;2022-10-31T07:19:21;12.27;;;11.30;;
63296;SDS011;49419;51.716;-4.948;2022-10-31T07:21:46;12.10;;;11.15;;
63296;SDS011;49419;51.716;-4.948;2022-10-31T07:24:12;12.85;;;11.52;;
63296;SDS011;49419;51.716;-4.948;2022-10-31T07:26:37;12.70;;;11.60;;
63296;SDS011;49419;51.716;-4.948;2022-10-31T07:29:02;12.90;;;11.70;;
63296;SDS011;49419;51.716;-4.948;2022-10-31T07:31:28;12.43;;;11.23;;
63296;SDS011;49419;51.716;-4.948;2022-10-31T07:33:53;12.80;;;11.40;;
63296;SDS011;49419;51.716;-4.948;2022-10-31T07:36:19;12.00;;;10.95;;
63296;SDS011;49419;51.716;-4.948;2022-10-31T07:38:44;11.90;;;10.98;;
63296;SDS011;49419;51.716;-4.948;2022-10-31T07:41:12;12.10;;;11.00;;
63296;SDS011;49419;51.716;-4.948;2022-10-31T07:43:37;12.40;;;11.30;;
63296;SDS011;49419;51.716;-4.948;2022-10-31T07:46:02;11.73;;;10.82;;
63296;SDS011;49419;51.716;-4.948;2022-10-31T07:48:28;11.93;;;10.95;;
63296;SDS011;49419;51.716;-4.948;2022-10-31T07:50:54;11.40;;;10.60;;
63296;SDS011;49419;51.716;-4.948;2022-10-31T07:53:20;11.77;;;10.75;;
63296;SDS011;49419;51.716;-4.948;2022-10-31T07:55:45;11.35;;;10.63;;
63296;SDS011;49419;51.716;-4.948;2022-10-31T07:58:12;11.60;;;10.80;;
63296;SDS011;49419;51.716;-4.948;2022-10-31T08:00:39;12.75;;;11.50;;
63296;SDS011;49419;51.716;-4.948;2022-10-31T08:03:07;12.15;;;11.23;;
63296;SDS011;49419;51.716;-4.948;2022-10-31T08:05:34;12.10;;;11.00;;
63296;SDS011;49419;51.716;-4.948;2022-10-31T08:08:00;12.60;;;11.50;;
63296;SDS011;49419;51.716;-4.948;2022-10-31T08:10:26;12.10;;;11.10;;
63296;SDS011;49419;51.716;-4.948;2022-10-31T08:12:59;12.20;;;11.20;;
63296;SDS011;49419;51.716;-4.948;2022-10-31T08:15:26;11.77;;;10.75;;
63296;SDS011;49419;51.716;-4.948;2022-10-31T08:17:52;12.25;;;11.15;;
63296;SDS011;49419;51.716;-4.948;2022-10-31T08:20:18;11.82;;;10.93;;
63296;SDS011;49419;51.716;-4.948;2022-10-31T08:22:51;11.90;;;11.00;;
63296;SDS011;49419;51.716;-4.948;2022-10-31T08:25:17;11.75;;;10.80;;
63296;SDS011;49419;51.716;-4.948;2022-10-31T08:27:43;12.00;;;10.90;;
63296;SDS011;49419;51.716;-4.948;2022-10-31T08:30:16;12.50;;;11.30;;
63296;SDS011;49419;51.716;-4.948;2022-10-31T08:35:45;11.77;;;10.88;;
63296;SDS011;49419;51.716;-4.948;2022-10-31T08:38:16;11.93;;;10.88;;
63296;SDS011;49419;51.716;-4.948;2022-10-31T08:40:47;12.07;;;11.07;;
63296;SDS011;49419;51.716;-4.948;2022-10-31T08:43:14;11.52;;;10.63;;
63296;SDS011;49419;51.716;-4.948;2022-10-31T08:45:43;11.43;;;10.50;;
63296;SDS011;49419;51.716;-4.948;2022-10-31T08:48:10;11.65;;;10.75;;
63296;SDS011;49419;51.716;-4.948;2022-10-31T08:50:37;11.73;;;10.80;;
63296;SDS011;49419;51.716;-4.948;2022-10-31T08:53:22;11.35;;;10.50;;
63296;SDS011;49419;51.716;-4.948;2022-10-31T08:55:54;11.52;;;10.52;;
63296;SDS011;49419;51.716;-4.948;2022-10-31T08:58:23;11.90;;;10.90;;
63296;SDS011;49419;51.716;-4.948;2022-10-31T09:00:52;12.90;;;11.13;;
63296;SDS011;49419;51.716;-4.948;2022-10-31T09:03:28;11.27;;;10.45;;
63296;SDS011;49419;51.716;-4.948;2022-10-31T09:06:09;11.40;;;10.52;;
63296;SDS011;49419;51.716;-4.948;2022-10-31T09:08:36;11.95;;;10.80;;
63296;SDS011;49419;51.716;-4.948;2022-10-31T09:11:04;11.35;;;10.38;;
63296;SDS011;49419;51.716;-4.948;2022-10-31T09:13:51;11.40;;;10.40;;
63296;SDS011;49419;51.716;-4.948;2022-10-31T09:16:21;12.20;;;11.15;;
63296;SDS011;49419;51.716;-4.948;2022-10-31T09:18:47;12.30;;;11.30;;
63296;SDS011;49419;51.716;-4.948;2022-10-31T09:21:19;12.05;;;11.10;;
63296;SDS011;49419;51.716;-4.948;2022-10-31T09:24:17;12.07;;;11.07;;
63296;SDS011;49419;51.716;-4.948;2022-10-31T09:27:03;11.90;;;10.93;;
63296;SDS011;49419;51.716;-4.948;2022-10-31T09:29:30;12.45;;;11.45;;
63296;SDS011;49419;51.716;-4.948;2022-10-31T09:31:58;12.82;;;11.80;;
63296;SDS011;49419;51.716;-4.948;2022-10-31T09:34:26;12.60;;;11.60;;
63296;SDS011;49419;51.716;-4.948;2022-10-31T09:36:55;12.90;;;11.90;;
63296;SDS011;49419;51.716;-4.948;2022-10-31T09:40:00;12.95;;;11.82;;
63296;SDS011;49419;51.716;-4.948;2022-10-31T09:43:27;12.02;;;10.85;;
63296;SDS011;49419;51.716;-4.948;2022-10-31T09:47:48;12.95;;;11.80;;
63296;SDS011;49419;51.716;-4.948;2022-10-31T09:56:35;11.80;;;10.90;;
63296;SDS011;49419;51.716;-4.948;2022-10-31T09:59:03;11.98;;;11.02;;
63296;SDS011;49419;51.716;-4.948;2022-10-31T10:04:31;13.50;;;12.38;;
63296;SDS011;49419;51.716;-4.948;2022-10-31T10:07:13;12.40;;;11.50;;
63296;SDS011;49419;51.716;-4.948;2022-10-31T10:09:50;12.10;;;11.30;;
63296;SDS011;49419;51.716;-4.948;2022-10-31T10:12:32;12.50;;;11.60;;
63296;SDS011;49419;51.716;-4.948;2022-10-31T10:18:03;11.63;;;10.73;;
63296;SDS011;49419;51.716;-4.948;2022-10-31T10:20:43;12.35;;;11.43;;
63296;SDS011;49419;51.716;-4.948;2022-10-31T10:23:29;12.07;;;11.27;;
63296;SDS011;49419;51.716;-4.948;2022-10-31T10:27:04;12.00;;;11.20;;
63296;SDS011;49419;51.716;-4.948;2022-10-31T10:29:01;12.20;;;11.38;;
63296;SDS011;49419;51.716;-4.948;2022-10-31T10:31:42;12.00;;;11.20;;
63296;SDS011;49419;51.716;-4.948;2022-10-31T10:37:00;12.23;;;11.32;;
63296;SDS011;49419;51.716;-4.948;2022-10-31T10:39:34;12.88;;;11.88;;
63296;SDS011;49419;51.716;-4.948;2022-10-31T10:42:13;12.52;;;11.63;;
63296;SDS011;49419;51.716;-4.948;2022-10-31T10:44:58;13.30;;;12.40;;
63296;SDS011;49419;51.716;-4.948;2022-10-31T10:47:44;13.43;;;12.27;;
63296;SDS011;49419;51.716;-4.948;2022-10-31T10:50:19;12.82;;;11.93;;
63296;SDS011;49419;51.716;-4.948;2022-10-31T10:55:36;12.70;;;11.80;;
63296;SDS011;49419;51.716;-4.948;2022-10-31T10:58:08;12.55;;;11.75;;
63296;SDS011;49419;51.716;-4.948;2022-10-31T11:00:42;12.80;;;12.00;;
63296;SDS011;49419;51.716;-4.948;2022-10-31T11:03:11;12.45;;;11.57;;
63296;SDS011;49419;51.716;-4.948;2022-10-31T11:08:06;12.67;;;11.67;;
63296;SDS011;49419;51.716;-4.948;2022-10-31T11:10:32;12.80;;;11.90;;
63296;SDS011;49419;51.716;-4.948;2022-10-31T11:15:51;13.57;;;12.50;;
63296;SDS011;49419;51.716;-4.948;2022-10-31T11:18:20;11.90;;;11.00;;
63296;SDS011;49419;51.716;-4.948;2022-10-31T11:20:51;11.90;;;11.10;;
63296;SDS011;49419;51.716;-4.948;2022-10-31T11:23:19;12.50;;;11.60;;
63296;SDS011;49419;51.716;-4.948;2022-10-31T11:25:54;13.90;;;12.80;;
63296;SDS011;49419;51.716;-4.948;2022-10-31T11:28:20;12.10;;;11.20;;
63296;SDS011;49419;51.716;-4.948;2022-10-31T11:30:54;12.63;;;11.73;;
63296;SDS011;49419;51.716;-4.948;2022-10-31T11:36:32;11.98;;;11.10;;
63296;SDS011;49419;51.716;-4.948;2022-10-31T11:39:04;11.80;;;11.02;;
63296;SDS011;49419;51.716;-4.948;2022-10-31T11:41:38;11.73;;;11.00;;
63296;SDS011;49419;51.716;-4.948;2022-10-31T11:44:06;11.80;;;11.00;;
63296;SDS011;49419;51.716;-4.948;2022-10-31T11:46:39;11.70;;;10.80;;
63296;SDS011;49419;51.716;-4.948;2022-10-31T11:49:11;11.50;;;10.73;;
63296;SDS011;49419;51.716;-4.948;2022-10-31T11:51:42;11.60;;;10.70;;
63296;SDS011;49419;51.716;-4.948;2022-10-31T11:54:15;11.13;;;10.40;;
63296;SDS011;49419;51.716;-4.948;2022-10-31T11:56:52;11.10;;;10.30;;
63296;SDS011;49419;51.716;-4.948;2022-10-31T11:59:21;11.25;;;10.40;;
63296;SDS011;49419;51.716;-4.948;2022-10-31T12:01:57;10.82;;;10.13;;
63296;SDS011;49419;51.716;-4.948;2022-10-31T12:04:43;10.65;;;9.95;;
63296;SDS011;49419;51.716;-4.948;2022-10-31T12:07:12;11.05;;;10.25;;
63296;SDS011;49419;51.716;-4.948;2022-10-31T12:09:38;11.20;;;10.40;;
63296;SDS011;49419;51.716;-4.948;2022-10-31T12:15:15;11.43;;;10.52;;
63296;SDS011;49419;51.716;-4.948;2022-10-31T12:23:28;11.75;;;10.63;;
63296;SDS011;49419;51.716;-4.948;2022-10-31T12:29:18;11.48;;;10.68;;
63296;SDS011;49419;51.716;-4.948;2022-10-31T12:35:15;11.32;;;10.52;;
63296;SDS011;49419;51.716;-4.948;2022-10-31T12:38:32;11.18;;;10.30;;
63296;SDS011;49419;51.716;-4.948;2022-10-31T12:47:51;10.82;;;10.13;;
63296;SDS011;49419;51.716;-4.948;2022-10-31T12:59:06;11.63;;;10.65;;
63296;SDS011;49419;51.716;-4.948;2022-10-31T13:04:15;11.20;;;10.30;;
63296;SDS011;49419;51.716;-4.948;2022-10-31T13:06:48;10.85;;;10.05;;
63296;SDS011;49419;51.716;-4.948;2022-10-31T13:09:20;10.85;;;10.05;;
63296;SDS011;49419;51.716;-4.948;2022-10-31T13:12:01;10.43;;;9.73;;
63296;SDS011;49419;51.716;-4.948;2022-10-31T13:14:39;10.40;;;9.50;;
63296;SDS011;49419;51.716;-4.948;2022-10-31T13:17:18;10.50;;;9.80;;
63296;SDS011;49419;51.716;-4.948;2022-10-31T13:19:45;10.43;;;9.73;;
63296;SDS011;49419;51.716;-4.948;2022-10-31T13:22:13;10.52;;;9.73;;
63296;SDS011;49419;51.716;-4.948;2022-10-31T13:27:21;10.25;;;9.55;;
63296;SDS011;49419;51.716;-4.948;2022-10-31T13:29:57;10.27;;;9.32;;
63296;SDS011;49419;51.716;-4.948;2022-10-31T13:32:27;10.50;;;9.80;;
63296;SDS011;49419;51.716;-4.948;2022-10-31T13:34:55;10.73;;;9.93;;
63296;SDS011;49419;51.716;-4.948;2022-10-31T13:37:33;10.40;;;9.63;;
63296;SDS011;49419;51.716;-4.948;2022-10-31T13:42:57;9.98;;;9.27;;
63296;SDS011;49419;51.716;-4.948;2022-10-31T13:45:31;10.32;;;9.60;;
63296;SDS011;49419;51.716;-4.948;2022-10-31T13:47:58;11.05;;;10.25;;
63296;SDS011;49419;51.716;-4.948;2022-10-31T13:50:30;10.37;;;9.57;;
63296;SDS011;49419;51.716;-4.948;2022-10-31T13:53:11;10.73;;;9.90;;
63296;SDS011;49419;51.716;-4.948;2022-10-31T13:58:16;9.77;;;9.10;;
63296;SDS011;49419;51.716;-4.948;2022-10-31T14:00:46;10.70;;;9.85;;
63296;SDS011;49419;51.716;-4.948;2022-10-31T14:03:40;9.65;;;8.95;;
63296;SDS011;49419;51.716;-4.948;2022-10-31T14:08:37;9.18;;;8.43;;
63296;SDS011;49419;51.716;-4.948;2022-10-31T14:11:08;8.73;;;8.02;;
63296;SDS011;49419;51.716;-4.948;2022-10-31T14:13:46;8.80;;;8.10;;
63296;SDS011;49419;51.716;-4.948;2022-10-31T14:16:21;9.20;;;8.15;;
63296;SDS011;49419;51.716;-4.948;2022-10-31T14:19:00;8.18;;;7.57;;
63296;SDS011;49419;51.716;-4.948;2022-10-31T14:21:31;8.90;;;8.20;;
63296;SDS011;49419;51.716;-4.948;2022-10-31T14:24:01;8.52;;;7.82;;
63296;SDS011;49419;51.716;-4.948;2022-10-31T14:29:30;9.23;;;8.20;;
63296;SDS011;49419;51.716;-4.948;2022-10-31T14:31:58;8.35;;;7.65;;
63296;SDS011;49419;51.716;-4.948;2022-10-31T14:40:25;8.70;;;8.02;;
63296;SDS011;49419;51.716;-4.948;2022-10-31T14:51:03;8.77;;;8.20;;
63296;SDS011;49419;51.716;-4.948;2022-10-31T14:53:53;9.82;;;8.90;;
63296;SDS011;49419;51.716;-4.948;2022-10-31T14:56:28;9.57;;;8.70;;
63296;SDS011;49419;51.716;-4.948;2022-10-31T14:58:57;9.55;;;8.65;;
63296;SDS011;49419;51.716;-4.948;2022-10-31T15:01:30;9.50;;;8.80;;
63296;SDS011;49419;51.716;-4.948;2022-10-31T15:04:11;9.38;;;8.68;;
63296;SDS011;49419;51.716;-4.948;2022-10-31T15:06:48;9.60;;;8.65;;
63296;SDS011;49419;51.716;-4.948;2022-10-31T15:11:52;9.45;;;8.75;;
63296;SDS011;49419;51.716;-4.948;2022-10-31T15:14:22;7.55;;;6.88;;
63296;SDS011;49419;51.716;-4.948;2022-10-31T15:16:49;8.60;;;7.80;;
63296;SDS011;49419;51.716;-4.948;2022-10-31T15:19:16;8.48;;;7.70;;
63296;SDS011;49419;51.716;-4.948;2022-10-31T15:21:46;7.72;;;7.10;;
63296;SDS011;49419;51.716;-4.948;2022-10-31T15:24:13;7.60;;;6.90;;
63296;SDS011;49419;51.716;-4.948;2022-10-31T15:26:52;7.63;;;7.03;;
63296;SDS011;49419;51.716;-4.948;2022-10-31T15:29:19;7.72;;;7.13;;
63296;SDS011;49419;51.716;-4.948;2022-10-31T15:31:54;7.22;;;6.68;;
63296;SDS011;49419;51.716;-4.948;2022-10-31T15:34:24;7.63;;;7.03;;
63296;SDS011;49419;51.716;-4.948;2022-10-31T15:36:54;6.88;;;6.28;;
63296;SDS011;49419;51.716;-4.948;2022-10-31T15:39:20;6.82;;;6.32;;
63296;SDS011;49419;51.716;-4.948;2022-10-31T15:41:54;7.00;;;6.40;;
63296;SDS011;49419;51.716;-4.948;2022-10-31T15:44:24;6.28;;;5.78;;
63296;SDS011;49419;51.716;-4.948;2022-10-31T15:46:55;6.43;;;5.82;;
63296;SDS011;49419;51.716;-4.948;2022-10-31T15:49:30;5.80;;;5.40;;
63296;SDS011;49419;51.716;-4.948;2022-10-31T15:52:12;6.93;;;6.13;;
63296;SDS011;49419;51.716;-4.948;2022-10-31T15:54:59;7.78;;;7.13;;
63296;SDS011;49419;51.716;-4.948;2022-10-31T15:57:29;10.07;;;9.10;;
63296;SDS011;49419;51.716;-4.948;2022-10-31T16:00:00;9.77;;;9.00;;
63296;SDS011;49419;51.716;-4.948;2022-10-31T16:02:28;10.57;;;9.75;;
63296;SDS011;49419;51.716;-4.948;2022-10-31T16:05:14;10.88;;;10.00;;
63296;SDS011;49419;51.716;-4.948;2022-10-31T16:07:49;10.30;;;9.30;;
63296;SDS011;49419;51.716;-4.948;2022-10-31T16:10:23;10.68;;;9.68;;
63296;SDS011;49419;51.716;-4.948;2022-10-31T16:12:50;10.80;;;9.90;;
63296;SDS011;49419;51.716;-4.948;2022-10-31T16:15:17;10.32;;;9.45;;
63296;SDS011;49419;51.716;-4.948;2022-10-31T16:17:45;10.98;;;10.00;;
63296;SDS011;49419;51.716;-4.948;2022-10-31T16:20:19;9.93;;;9.23;;
63296;SDS011;49419;51.716;-4.948;2022-10-31T16:22:49;10.65;;;9.60;;
63296;SDS011;49419;51.716;-4.948;2022-10-31T16:25:25;10.63;;;9.82;;
63296;SDS011;49419;51.716;-4.948;2022-10-31T16:27:57;11.18;;;10.27;;
63296;SDS011;49419;51.716;-4.948;2022-10-31T16:30:39;11.25;;;10.25;;
63296;SDS011;49419;51.716;-4.948;2022-10-31T16:35:57;11.90;;;10.70;;
63296;SDS011;49419;51.716;-4.948;2022-10-31T16:40:59;11.27;;;10.25;;
63296;SDS011;49419;51.716;-4.948;2022-10-31T16:43:26;10.85;;;10.07;;
63296;SDS011;49419;51.716;-4.948;2022-10-31T16:45:55;11.10;;;10.20;;
63296;SDS011;49419;51.716;-4.948;2022-10-31T16:48:21;11.93;;;10.40;;
63296;SDS011;49419;51.716;-4.948;2022-10-31T16:53:17;11.13;;;10.20;;
63296;SDS011;49419;51.716;-4.948;2022-10-31T16:56:03;11.07;;;10.15;;